createdAt,value
2017-02-02T00:00:06.728Z,1007.17
2017-02-02T00:01:17.157Z,1007.17
2017-02-02T00:02:27.809Z,1007.15
2017-02-02T00:03:38.057Z,1007.13
2017-02-02T00:04:48.301Z,1007.16
2017-02-02T00:05:58.945Z,1007.08
2017-02-02T00:07:08.975Z,1007.07
2017-02-02T00:08:19.658Z,1007.09
2017-02-02T00:09:29.980Z,1007.09
2017-02-02T00:10:40.667Z,1007.06
2017-02-02T00:11:51.322Z,1007.05
2017-02-02T00:13:02.348Z,1007.01
2017-02-02T00:14:12.650Z,1007.01
2017-02-02T00:15:22.563Z,1007.01
2017-02-02T00:16:32.868Z,1007.03
2017-02-02T00:17:43.183Z,1007.02
2017-02-02T00:18:53.620Z,1007.04
2017-02-02T00:20:04.308Z,1007.1
2017-02-02T00:21:14.963Z,1007.05
2017-02-02T00:22:25.220Z,1007.07
2017-02-02T00:23:35.870Z,1007.08
2017-02-02T00:24:46.263Z,1007.07
2017-02-02T00:25:56.923Z,1007.01
2017-02-02T00:27:07.193Z,1007.03
2017-02-02T00:28:17.452Z,1006.97
2017-02-02T00:29:28.131Z,1006.97
2017-02-02T00:30:39.070Z,1007
2017-02-02T00:31:49.718Z,1007.04
2017-02-02T00:33:00.009Z,1006.96
2017-02-02T00:34:10.260Z,1006.97
2017-02-02T00:35:20.633Z,1006.96
2017-02-02T00:36:31.575Z,1006.98
2017-02-02T00:37:42.239Z,1006.97
2017-02-02T00:38:52.504Z,1006.93
2017-02-02T00:40:03.158Z,1006.96
2017-02-02T00:41:13.408Z,1006.96
2017-02-02T00:42:24.429Z,1006.95
2017-02-02T00:43:34.706Z,1006.97
2017-02-02T00:44:45.346Z,1006.87
2017-02-02T00:45:55.604Z,1006.88
2017-02-02T00:47:05.485Z,1006.93
2017-02-02T00:48:16.496Z,1006.91
2017-02-02T00:49:25.973Z,1006.96
2017-02-02T00:50:36.628Z,1006.97
2017-02-02T00:51:46.495Z,1006.97
2017-02-02T00:52:56.756Z,1006.99
2017-02-02T00:54:06.965Z,1006.95
2017-02-02T00:55:17.207Z,1006.94
2017-02-02T00:56:27.464Z,1006.96
2017-02-02T00:57:37.717Z,1006.98
2017-02-02T00:58:48.350Z,1006.96
2017-02-02T00:59:58.754Z,1006.95
2017-02-02T01:01:09.016Z,1006.94
2017-02-02T01:02:19.293Z,1006.93
2017-02-02T01:03:29.546Z,1006.92
2017-02-02T01:04:39.426Z,1006.96
2017-02-02T01:05:49.845Z,1006.92
2017-02-02T01:07:00.107Z,1006.98
2017-02-02T01:08:10.357Z,1006.99
2017-02-02T01:09:21.005Z,1007.02
2017-02-02T01:10:30.485Z,1007.01
2017-02-02T01:11:41.404Z,1007.02
2017-02-02T01:12:51.661Z,1007.03
2017-02-02T01:14:01.974Z,1006.97
2017-02-02T01:15:12.228Z,1006.99
2017-02-02T01:16:22.888Z,1006.99
2017-02-02T01:17:33.440Z,1007
2017-02-02T01:18:44.079Z,1007.05
2017-02-02T01:19:54.731Z,1007.02
2017-02-02T01:21:05.042Z,1007.07
2017-02-02T01:22:15.314Z,1006.99
2017-02-02T01:23:25.874Z,1006.97
2017-02-02T01:24:36.512Z,1007.01
2017-02-02T01:25:47.169Z,1006.99
2017-02-02T01:26:57.044Z,1006.92
2017-02-02T01:28:07.693Z,1006.97
2017-02-02T01:29:18.066Z,1006.96
2017-02-02T01:30:28.736Z,1006.98
2017-02-02T01:31:39.024Z,1006.96
2017-02-02T01:32:48.944Z,1006.97
2017-02-02T01:33:59.248Z,1007.01
2017-02-02T01:35:10.241Z,1007.05
2017-02-02T01:36:20.493Z,1007.06
2017-02-02T01:37:30.757Z,1007.05
2017-02-02T01:38:40.236Z,1006.98
2017-02-02T01:39:50.881Z,1007
2017-02-02T01:41:01.247Z,1006.99
2017-02-02T01:42:11.496Z,1006.96
2017-02-02T01:43:22.150Z,1006.97
2017-02-02T01:44:32.009Z,1006.96
2017-02-02T01:45:42.686Z,1007.04
2017-02-02T01:46:53.695Z,1007.01
2017-02-02T01:48:04.376Z,1007.03
2017-02-02T01:49:15.028Z,1007.04
2017-02-02T01:50:24.525Z,1007.01
2017-02-02T01:51:34.005Z,1006.98
2017-02-02T01:52:44.819Z,1007.04
2017-02-02T01:53:54.668Z,1006.99
2017-02-02T01:55:04.150Z,1007.03
2017-02-02T01:56:14.415Z,1006.99
2017-02-02T01:57:24.295Z,1007.03
2017-02-02T01:58:34.718Z,1007.04
2017-02-02T01:59:45.714Z,1007.02
2017-02-02T02:00:55.863Z,1007
2017-02-02T02:02:05.540Z,1007.06
2017-02-02T02:03:15.218Z,1007.02
2017-02-02T02:04:26.084Z,1007.12
2017-02-02T02:05:36.358Z,1007.09
2017-02-02T02:06:46.992Z,1007.11
2017-02-02T02:07:57.330Z,1007.09
2017-02-02T02:09:07.593Z,1007.05
2017-02-02T02:10:18.146Z,1006.98
2017-02-02T02:11:28.391Z,1006.98
2017-02-02T02:12:38.650Z,1006.94
2017-02-02T02:13:48.908Z,1006.95
2017-02-02T02:14:58.768Z,1006.91
2017-02-02T02:16:08.195Z,1006.92
2017-02-02T02:17:18.442Z,1006.92
2017-02-02T02:18:28.708Z,1006.87
2017-02-02T02:19:38.959Z,1006.86
2017-02-02T02:20:49.232Z,1006.83
2017-02-02T02:21:59.260Z,1006.69
2017-02-02T02:23:09.897Z,1006.71
2017-02-02T02:24:20.552Z,1006.71
2017-02-02T02:25:31.205Z,1006.73
2017-02-02T02:26:41.479Z,1006.74
2017-02-02T02:27:52.429Z,1006.62
2017-02-02T02:29:03.090Z,1006.67
2017-02-02T02:30:13.735Z,1006.64
2017-02-02T02:31:23.220Z,1006.64
2017-02-02T02:32:33.484Z,1006.64
2017-02-02T02:33:44.447Z,1006.65
2017-02-02T02:34:54.725Z,1006.63
2017-02-02T02:36:04.582Z,1006.58
2017-02-02T02:37:14.477Z,1006.57
2017-02-02T02:38:24.328Z,1006.59
2017-02-02T02:39:34.492Z,1006.55
2017-02-02T02:40:44.756Z,1006.54
2017-02-02T02:41:55.415Z,1006.54
2017-02-02T02:43:06.057Z,1006.5
2017-02-02T02:44:16.312Z,1006.43
2017-02-02T02:45:26.078Z,1006.46
2017-02-02T02:46:36.727Z,1006.35
2017-02-02T02:47:47.472Z,1006.37
2017-02-02T02:48:57.338Z,1006.37
2017-02-02T02:50:07.978Z,1006.37
2017-02-02T02:51:18.786Z,1006.37
2017-02-02T02:52:28.662Z,1006.45
2017-02-02T02:53:39.304Z,1006.44
2017-02-02T02:54:49.955Z,1006.44
2017-02-02T02:56:00.604Z,1006.45
2017-02-02T02:57:11.183Z,1006.47
2017-02-02T02:58:21.908Z,1006.47
2017-02-02T02:59:32.559Z,1006.45
2017-02-02T03:00:42.416Z,1006.41
2017-02-02T03:01:52.673Z,1006.4
2017-02-02T03:03:02.808Z,1006.38
2017-02-02T03:04:13.486Z,1006.4
2017-02-02T03:05:23.338Z,1006.45
2017-02-02T03:06:33.977Z,1006.37
2017-02-02T03:07:44.242Z,1006.4
2017-02-02T03:08:55.264Z,1006.36
2017-02-02T03:10:05.518Z,1006.45
2017-02-02T03:11:15.014Z,1006.43
2017-02-02T03:12:25.700Z,1006.4
2017-02-02T03:13:36.361Z,1006.35
2017-02-02T03:14:46.858Z,1006.38
2017-02-02T03:15:56.723Z,1006.38
2017-02-02T03:17:07.000Z,1006.34
2017-02-02T03:18:17.641Z,1006.37
2017-02-02T03:19:28.272Z,1006.32
2017-02-02T03:20:38.840Z,1006.3
2017-02-02T03:21:49.481Z,1006.31
2017-02-02T03:23:00.112Z,1006.32
2017-02-02T03:24:10.369Z,1006.28
2017-02-02T03:25:19.857Z,1006.33
2017-02-02T03:26:30.844Z,1006.36
2017-02-02T03:27:41.089Z,1006.36
2017-02-02T03:28:51.344Z,1006.37
2017-02-02T03:30:01.990Z,1006.39
2017-02-02T03:31:12.237Z,1006.39
2017-02-02T03:32:22.392Z,1006.39
2017-02-02T03:33:33.054Z,1006.41
2017-02-02T03:34:43.718Z,1006.39
2017-02-02T03:35:54.389Z,1006.37
2017-02-02T03:37:04.636Z,1006.42
2017-02-02T03:38:15.160Z,1006.39
2017-02-02T03:39:25.422Z,1006.4
2017-02-02T03:40:36.058Z,1006.39
2017-02-02T03:41:46.311Z,1006.43
2017-02-02T03:42:56.558Z,1006.42
2017-02-02T03:44:07.113Z,1006.35
2017-02-02T03:45:17.372Z,1006.37
2017-02-02T03:46:28.023Z,1006.31
2017-02-02T03:47:38.284Z,1006.29
2017-02-02T03:48:48.534Z,1006.28
2017-02-02T03:49:59.072Z,1006.26
2017-02-02T03:51:08.985Z,1006.22
2017-02-02T03:52:19.549Z,1006.16
2017-02-02T03:53:30.183Z,1006.14
2017-02-02T03:54:40.835Z,1006.15
2017-02-02T03:55:51.247Z,1006.15
2017-02-02T03:57:01.931Z,1006.18
2017-02-02T03:58:12.578Z,1006.15
2017-02-02T03:59:22.482Z,1006.16
2017-02-02T04:00:32.747Z,1006.13
2017-02-02T04:01:43.711Z,1006.12
2017-02-02T04:02:54.017Z,1006.12
2017-02-02T04:04:04.679Z,1006.16
2017-02-02T04:05:14.980Z,1006.11
2017-02-02T04:06:24.837Z,1006.11
2017-02-02T04:07:35.250Z,1006.08
2017-02-02T04:08:45.104Z,1006.09
2017-02-02T04:09:55.745Z,1006.08
2017-02-02T04:11:06.028Z,1006.14
2017-02-02T04:12:16.298Z,1006.11
2017-02-02T04:13:27.320Z,1006.16
2017-02-02T04:14:37.989Z,1006.14
2017-02-02T04:15:48.246Z,1006.18
2017-02-02T04:16:58.529Z,1006.16
2017-02-02T04:18:09.170Z,1006.15
2017-02-02T04:19:19.139Z,1006.18
2017-02-02T04:20:29.776Z,1006.16
2017-02-02T04:21:40.442Z,1006.14
2017-02-02T04:22:50.307Z,1006.15
2017-02-02T04:24:00.580Z,1006.11
2017-02-02T04:25:11.563Z,1006.13
2017-02-02T04:26:22.198Z,1006.12
2017-02-02T04:27:32.478Z,1006.11
2017-02-02T04:28:43.113Z,1006.14
2017-02-02T04:29:53.375Z,1006.1
2017-02-02T04:31:04.276Z,1006.09
2017-02-02T04:32:14.523Z,1006.03
2017-02-02T04:33:25.163Z,1006.07
2017-02-02T04:34:35.423Z,1006.01
2017-02-02T04:35:46.059Z,1006.03
2017-02-02T04:36:56.558Z,1006
2017-02-02T04:38:06.831Z,1006.02
2017-02-02T04:39:17.094Z,1006.03
2017-02-02T04:40:27.757Z,1006
2017-02-02T04:41:37.667Z,1006
2017-02-02T04:42:48.614Z,1006.04
2017-02-02T04:43:59.253Z,1006.01
2017-02-02T04:45:09.135Z,1006.05
2017-02-02T04:46:19.781Z,1006.05
2017-02-02T04:47:30.438Z,1006.02
2017-02-02T04:48:40.978Z,1005.98
2017-02-02T04:49:50.461Z,1006.03
2017-02-02T04:51:01.096Z,1006.01
2017-02-02T04:52:11.881Z,1005.99
2017-02-02T04:53:22.136Z,1005.99
2017-02-02T04:54:33.146Z,1006.04
2017-02-02T04:55:43.416Z,1006
2017-02-02T04:56:54.071Z,1005.99
2017-02-02T04:58:03.944Z,1006.01
2017-02-02T04:59:14.198Z,1005.99
2017-02-02T05:00:24.975Z,1006.03
2017-02-02T05:01:35.245Z,1006.07
2017-02-02T05:02:45.113Z,1006.08
2017-02-02T05:03:55.773Z,1006.1
2017-02-02T05:05:06.419Z,1006.14
2017-02-02T05:06:17.355Z,1006.13
2017-02-02T05:07:27.626Z,1006.13
2017-02-02T05:08:37.502Z,1006.16
2017-02-02T05:09:47.744Z,1006.15
2017-02-02T05:10:58.443Z,1006.21
2017-02-02T05:12:09.454Z,1006.15
2017-02-02T05:13:20.102Z,1006.11
2017-02-02T05:14:30.364Z,1006.12
2017-02-02T05:15:40.624Z,1006.09
2017-02-02T05:16:51.273Z,1006.07
2017-02-02T05:18:01.667Z,1006.03
2017-02-02T05:19:12.202Z,1006.03
2017-02-02T05:20:22.462Z,1005.99
2017-02-02T05:21:32.318Z,1006
2017-02-02T05:22:43.001Z,1005.99
2017-02-02T05:23:53.938Z,1005.96
2017-02-02T05:25:04.596Z,1005.93
2017-02-02T05:26:14.855Z,1005.95
2017-02-02T05:27:24.752Z,1005.94
2017-02-02T05:28:35.398Z,1005.92
2017-02-02T05:29:45.637Z,1005.92
2017-02-02T05:30:55.938Z,1005.89
2017-02-02T05:32:06.186Z,1005.9
2017-02-02T05:33:16.039Z,1005.89
2017-02-02T05:34:26.285Z,1005.85
2017-02-02T05:35:36.839Z,1005.8
2017-02-02T05:36:47.515Z,1005.78
2017-02-02T05:37:58.155Z,1005.78
2017-02-02T05:39:08.796Z,1005.77
2017-02-02T05:40:19.469Z,1005.76
2017-02-02T05:41:30.457Z,1005.73
2017-02-02T05:42:40.313Z,1005.7
2017-02-02T05:43:50.556Z,1005.69
2017-02-02T05:45:00.822Z,1005.7
2017-02-02T05:46:11.468Z,1005.68
2017-02-02T05:47:22.266Z,1005.67
2017-02-02T05:48:32.131Z,1005.64
2017-02-02T05:49:42.400Z,1005.66
2017-02-02T05:50:52.664Z,1005.61
2017-02-02T05:52:02.524Z,1005.67
2017-02-02T05:53:13.480Z,1005.58
2017-02-02T05:54:23.353Z,1005.63
2017-02-02T05:55:33.606Z,1005.66
2017-02-02T05:56:43.857Z,1005.62
2017-02-02T05:57:53.724Z,1005.64
2017-02-02T05:59:04.731Z,1005.65
2017-02-02T06:00:15.015Z,1005.65
2017-02-02T06:01:24.529Z,1005.63
2017-02-02T06:02:35.197Z,1005.59
2017-02-02T06:03:45.869Z,1005.59
2017-02-02T06:04:56.780Z,1005.57
2017-02-02T06:06:06.636Z,1005.53
2017-02-02T06:07:17.293Z,1005.56
2017-02-02T06:08:27.929Z,1005.54
2017-02-02T06:09:38.195Z,1005.53
2017-02-02T06:10:49.177Z,1005.54
2017-02-02T06:11:59.835Z,1005.54
2017-02-02T06:13:10.145Z,1005.57
2017-02-02T06:14:20.435Z,1005.61
2017-02-02T06:15:30.314Z,1005.58
2017-02-02T06:16:40.741Z,1005.58
2017-02-02T06:17:51.418Z,1005.6
2017-02-02T06:19:01.664Z,1005.64
2017-02-02T06:20:12.027Z,1005.64
2017-02-02T06:21:22.670Z,1005.63
2017-02-02T06:22:33.101Z,1005.66
2017-02-02T06:23:42.982Z,1005.58
2017-02-02T06:24:53.362Z,1005.61
2017-02-02T06:26:03.638Z,1005.58
2017-02-02T06:27:14.299Z,1005.58
2017-02-02T06:28:24.914Z,1005.5
2017-02-02T06:29:35.610Z,1005.51
2017-02-02T06:30:45.499Z,1005.44
2017-02-02T06:31:56.143Z,1005.47
2017-02-02T06:33:06.431Z,1005.5
2017-02-02T06:34:16.636Z,1005.46
2017-02-02T06:35:27.287Z,1005.39
2017-02-02T06:36:37.596Z,1005.38
2017-02-02T06:37:48.241Z,1005.38
2017-02-02T06:38:58.500Z,1005.36
2017-02-02T06:40:09.459Z,1005.38
2017-02-02T06:41:19.718Z,1005.35
2017-02-02T06:42:29.985Z,1005.4
2017-02-02T06:43:39.859Z,1005.42
2017-02-02T06:44:49.395Z,1005.36
2017-02-02T06:46:00.300Z,1005.36
2017-02-02T06:47:10.154Z,1005.33
2017-02-02T06:48:20.063Z,1005.39
2017-02-02T06:49:29.951Z,1005.37
2017-02-02T06:50:39.804Z,1005.39
2017-02-02T06:51:50.606Z,1005.38
2017-02-02T06:53:00.912Z,1005.38
2017-02-02T06:54:11.568Z,1005.42
2017-02-02T06:55:21.818Z,1005.44
2017-02-02T06:56:32.102Z,1005.42
2017-02-02T06:57:43.273Z,1005.45
2017-02-02T06:58:53.543Z,1005.44
2017-02-02T07:00:04.220Z,1005.41
2017-02-02T07:01:14.086Z,1005.42
2017-02-02T07:02:24.876Z,1005.38
2017-02-02T07:03:35.012Z,1005.4
2017-02-02T07:04:44.879Z,1005.42
2017-02-02T07:05:55.513Z,1005.37
2017-02-02T07:07:05.753Z,1005.41
2017-02-02T07:08:15.837Z,1005.38
2017-02-02T07:09:26.656Z,1005.43
2017-02-02T07:10:36.919Z,1005.38
2017-02-02T07:11:47.176Z,1005.36
2017-02-02T07:12:57.839Z,1005.36
2017-02-02T07:14:07.727Z,1005.39
2017-02-02T07:15:17.222Z,1005.4
2017-02-02T07:16:26.703Z,1005.39
2017-02-02T07:17:36.950Z,1005.39
2017-02-02T07:18:47.220Z,1005.43
2017-02-02T07:19:57.875Z,1005.48
2017-02-02T07:21:08.282Z,1005.47
2017-02-02T07:22:18.533Z,1005.5
2017-02-02T07:23:29.171Z,1005.49
2017-02-02T07:24:39.410Z,1005.52
2017-02-02T07:25:50.071Z,1005.55
2017-02-02T07:27:01.033Z,1005.54
2017-02-02T07:28:11.838Z,1005.56
2017-02-02T07:29:22.122Z,1005.5
2017-02-02T07:30:32.016Z,1005.55
2017-02-02T07:31:41.884Z,1005.54
2017-02-02T07:32:52.447Z,1005.53
2017-02-02T07:34:03.111Z,1005.55
2017-02-02T07:35:13.371Z,1005.52
2017-02-02T07:36:24.047Z,1005.51
2017-02-02T07:37:33.910Z,1005.5
2017-02-02T07:38:44.895Z,1005.49
2017-02-02T07:39:55.560Z,1005.51
2017-02-02T07:41:05.824Z,1005.51
2017-02-02T07:42:16.092Z,1005.52
2017-02-02T07:43:26.647Z,1005.53
2017-02-02T07:44:37.657Z,1005.56
2017-02-02T07:45:47.915Z,1005.54
2017-02-02T07:46:58.197Z,1005.53
2017-02-02T07:48:08.740Z,1005.51
2017-02-02T07:49:19.004Z,1005.52
2017-02-02T07:50:29.993Z,1005.53
2017-02-02T07:51:40.642Z,1005.57
2017-02-02T07:52:50.906Z,1005.57
2017-02-02T07:54:00.766Z,1005.63
2017-02-02T07:55:11.047Z,1005.61
2017-02-02T07:56:22.043Z,1005.56
2017-02-02T07:57:32.287Z,1005.55
2017-02-02T07:58:42.935Z,1005.54
2017-02-02T07:59:52.798Z,1005.5
2017-02-02T08:01:03.435Z,1005.49
2017-02-02T08:02:13.784Z,1005.49
2017-02-02T08:03:24.055Z,1005.48
2017-02-02T08:04:34.316Z,1005.5
2017-02-02T08:05:44.956Z,1005.56
2017-02-02T08:06:54.813Z,1005.47
2017-02-02T08:08:05.414Z,1005.46
2017-02-02T08:09:15.295Z,1005.49
2017-02-02T08:10:25.983Z,1005.4
2017-02-02T08:11:36.246Z,1005.41
2017-02-02T08:12:46.905Z,1005.4
2017-02-02T08:13:57.425Z,1005.38
2017-02-02T08:15:07.685Z,1005.42
2017-02-02T08:16:17.585Z,1005.41
2017-02-02T08:17:27.856Z,1005.42
2017-02-02T08:18:36.946Z,1005.42
2017-02-02T08:19:47.491Z,1005.43
2017-02-02T08:20:57.372Z,1005.43
2017-02-02T08:22:07.254Z,1005.42
2017-02-02T08:23:17.898Z,1005.48
2017-02-02T08:24:28.195Z,1005.42
2017-02-02T08:25:38.846Z,1005.44
2017-02-02T08:26:49.113Z,1005.44
2017-02-02T08:27:59.768Z,1005.43
2017-02-02T08:29:09.641Z,1005.39
2017-02-02T08:30:20.311Z,1005.43
2017-02-02T08:31:31.110Z,1005.44
2017-02-02T08:32:40.984Z,1005.4
2017-02-02T08:33:50.862Z,1005.37
2017-02-02T08:35:01.553Z,1005.46
2017-02-02T08:36:12.208Z,1005.39
2017-02-02T08:37:22.945Z,1005.39
2017-02-02T08:38:33.606Z,1005.44
2017-02-02T08:39:43.862Z,1005.46
2017-02-02T08:40:54.516Z,1005.38
2017-02-02T08:42:04.817Z,1005.34
2017-02-02T08:43:15.227Z,1005.31
2017-02-02T08:44:25.786Z,1005.41
2017-02-02T08:45:35.704Z,1005.33
2017-02-02T08:46:45.993Z,1005.31
2017-02-02T08:47:55.474Z,1005.4
2017-02-02T08:49:06.371Z,1005.28
2017-02-02T08:50:17.026Z,1005.29
2017-02-02T08:51:26.886Z,1005.31
2017-02-02T08:52:37.168Z,1005.32
2017-02-02T08:53:47.807Z,1005.34
2017-02-02T08:54:58.371Z,1005.37
2017-02-02T08:56:08.632Z,1005.34
2017-02-02T08:57:19.280Z,1005.29
2017-02-02T08:58:29.161Z,1005.3
2017-02-02T08:59:39.024Z,1005.28
2017-02-02T09:00:49.649Z,1005.25
2017-02-02T09:01:59.903Z,1005.29
2017-02-02T09:03:10.435Z,1005.23
2017-02-02T09:04:20.694Z,1005.18
2017-02-02T09:05:30.185Z,1005.26
2017-02-02T09:06:40.884Z,1005.2
2017-02-02T09:07:50.753Z,1005.21
2017-02-02T09:09:01.393Z,1005.16
2017-02-02T09:10:11.653Z,1005.06
2017-02-02T09:11:22.334Z,1005.03
2017-02-02T09:12:33.238Z,1005
2017-02-02T09:13:43.485Z,1004.93
2017-02-02T09:14:54.143Z,1004.97
2017-02-02T09:16:04.795Z,1004.98
2017-02-02T09:17:15.483Z,1004.95
2017-02-02T09:18:25.894Z,1004.99
2017-02-02T09:19:36.557Z,1004.99
2017-02-02T09:20:47.203Z,1005.05
2017-02-02T09:21:57.469Z,1005
2017-02-02T09:23:07.335Z,1004.97
2017-02-02T09:24:17.319Z,1004.93
2017-02-02T09:25:27.574Z,1004.95
2017-02-02T09:26:37.836Z,1004.93
2017-02-02T09:27:48.499Z,1004.94
2017-02-02T09:28:59.206Z,1004.9
2017-02-02T09:30:09.998Z,1004.97
2017-02-02T09:31:20.275Z,1004.9
2017-02-02T09:32:30.566Z,1004.9
2017-02-02T09:33:41.204Z,1004.88
2017-02-02T09:34:51.488Z,1004.87
2017-02-02T09:36:01.670Z,1004.87
2017-02-02T09:37:11.140Z,1004.88
2017-02-02T09:38:21.423Z,1004.81
2017-02-02T09:39:31.286Z,1004.79
2017-02-02T09:40:41.940Z,1004.82
2017-02-02T09:41:52.898Z,1004.81
2017-02-02T09:43:03.552Z,1004.85
2017-02-02T09:44:14.206Z,1004.86
2017-02-02T09:45:23.697Z,1004.86
2017-02-02T09:46:33.623Z,1004.89
2017-02-02T09:47:44.246Z,1004.85
2017-02-02T09:48:54.491Z,1004.83
2017-02-02T09:50:05.164Z,1004.79
2017-02-02T09:51:15.850Z,1004.81
2017-02-02T09:52:26.117Z,1004.82
2017-02-02T09:53:36.235Z,1004.83
2017-02-02T09:54:46.499Z,1004.83
2017-02-02T09:55:57.150Z,1004.79
2017-02-02T09:57:07.802Z,1004.75
2017-02-02T09:58:17.682Z,1004.76
2017-02-02T09:59:28.230Z,1004.74
2017-02-02T10:00:38.891Z,1004.76
2017-02-02T10:01:49.149Z,1004.82
2017-02-02T10:02:59.408Z,1004.83
2017-02-02T10:04:10.068Z,1004.8
2017-02-02T10:05:20.595Z,1004.75
2017-02-02T10:06:31.261Z,1004.76
2017-02-02T10:07:42.040Z,1004.75
2017-02-02T10:08:52.305Z,1004.75
2017-02-02T10:10:02.557Z,1004.74
2017-02-02T10:11:13.110Z,1004.75
2017-02-02T10:12:23.362Z,1004.78
2017-02-02T10:13:33.633Z,1004.78
2017-02-02T10:14:43.899Z,1004.81
2017-02-02T10:15:54.202Z,1004.81
2017-02-02T10:17:05.100Z,1004.78
2017-02-02T10:18:15.762Z,1004.78
2017-02-02T10:19:26.024Z,1004.75
2017-02-02T10:20:36.295Z,1004.75
2017-02-02T10:21:46.956Z,1004.78
2017-02-02T10:22:57.784Z,1004.81
2017-02-02T10:24:07.258Z,1004.75
2017-02-02T10:25:17.120Z,1004.83
2017-02-02T10:26:26.980Z,1004.81
2017-02-02T10:27:37.654Z,1004.88
2017-02-02T10:28:48.660Z,1004.8
2017-02-02T10:29:59.313Z,1004.78
2017-02-02T10:31:08.805Z,1004.79
2017-02-02T10:32:18.700Z,1004.73
2017-02-02T10:33:29.012Z,1004.69
2017-02-02T10:34:39.577Z,1004.65
2017-02-02T10:35:49.830Z,1004.63
2017-02-02T10:37:00.495Z,1004.57
2017-02-02T10:38:10.748Z,1004.56
2017-02-02T10:39:21.002Z,1004.57
2017-02-02T10:40:31.026Z,1004.5
2017-02-02T10:41:41.701Z,1004.45
2017-02-02T10:42:51.956Z,1004.43
2017-02-02T10:44:02.258Z,1004.39
2017-02-02T10:45:11.743Z,1004.32
2017-02-02T10:46:22.695Z,1004.25
2017-02-02T10:47:32.955Z,1004.21
2017-02-02T10:48:43.239Z,1004.2
2017-02-02T10:49:53.503Z,1004.17
2017-02-02T10:51:04.164Z,1004.17
2017-02-02T10:52:14.953Z,1004.18
2017-02-02T10:53:24.824Z,1004.17
2017-02-02T10:54:35.093Z,1004.17
2017-02-02T10:55:45.754Z,1004.1
2017-02-02T10:56:56.017Z,1004.12
2017-02-02T10:58:06.850Z,1004.1
2017-02-02T10:59:16.357Z,1004.09
2017-02-02T11:00:26.617Z,1004.1
2017-02-02T11:01:36.097Z,1004.04
2017-02-02T11:02:45.961Z,1004.03
2017-02-02T11:03:56.045Z,1004.08
2017-02-02T11:05:06.723Z,1004.07
2017-02-02T11:06:17.387Z,1004.01
2017-02-02T11:07:27.658Z,1003.93
2017-02-02T11:08:38.614Z,1003.97
2017-02-02T11:09:48.646Z,1003.96
2017-02-02T11:10:59.287Z,1003.92
2017-02-02T11:12:09.549Z,1003.87
2017-02-02T11:13:19.850Z,1003.89
2017-02-02T11:14:30.106Z,1003.85
2017-02-02T11:15:40.663Z,1003.89
2017-02-02T11:16:50.531Z,1003.88
2017-02-02T11:18:01.175Z,1003.81
2017-02-02T11:19:10.671Z,1003.81
2017-02-02T11:20:20.924Z,1003.78
2017-02-02T11:21:30.645Z,1003.77
2017-02-02T11:22:40.910Z,1003.77
2017-02-02T11:23:51.598Z,1003.77
2017-02-02T11:25:02.301Z,1003.74
2017-02-02T11:26:12.573Z,1003.65
2017-02-02T11:27:22.548Z,1003.6
2017-02-02T11:28:33.192Z,1003.6
2017-02-02T11:29:43.064Z,1003.56
2017-02-02T11:30:53.316Z,1003.51
2017-02-02T11:32:03.993Z,1003.5
2017-02-02T11:33:14.796Z,1003.49
2017-02-02T11:34:25.220Z,1003.46
2017-02-02T11:35:35.860Z,1003.45
2017-02-02T11:36:46.125Z,1003.47
2017-02-02T11:37:56.780Z,1003.45
2017-02-02T11:39:07.353Z,1003.39
2017-02-02T11:40:17.604Z,1003.4
2017-02-02T11:41:27.867Z,1003.41
2017-02-02T11:42:38.530Z,1003.4
2017-02-02T11:43:48.014Z,1003.37
2017-02-02T11:44:59.036Z,1003.4
2017-02-02T11:46:09.696Z,1003.37
2017-02-02T11:47:20.344Z,1003.34
2017-02-02T11:48:29.827Z,1003.37
2017-02-02T11:49:40.798Z,1003.27
2017-02-02T11:50:52.098Z,1003.29
2017-02-02T11:52:02.366Z,1003.26
2017-02-02T11:53:13.018Z,1003.24
2017-02-02T11:54:23.315Z,1003.19
2017-02-02T11:55:33.980Z,1003.17
2017-02-02T11:56:44.525Z,1003.23
2017-02-02T11:57:55.171Z,1003.2
2017-02-02T11:59:05.839Z,1003.17
2017-02-02T12:00:16.120Z,1003.16
2017-02-02T12:01:25.991Z,1003.11
2017-02-02T12:02:36.363Z,1003.12
2017-02-02T12:03:47.007Z,1003.14
2017-02-02T12:04:57.649Z,1003.09
2017-02-02T12:06:08.284Z,1003.1
2017-02-02T12:07:18.559Z,1003.07
2017-02-02T12:08:29.369Z,1003.03
2017-02-02T12:09:40.018Z,1002.98
2017-02-02T12:10:50.290Z,1002.95
2017-02-02T12:12:00.573Z,1002.92
2017-02-02T12:13:10.059Z,1002.88
2017-02-02T12:14:21.053Z,1002.86
2017-02-02T12:15:30.938Z,1002.86
2017-02-02T12:16:41.589Z,1002.87
2017-02-02T12:17:51.473Z,1002.82
2017-02-02T12:19:01.787Z,1002.85
2017-02-02T12:20:12.528Z,1002.75
2017-02-02T12:21:22.019Z,1002.79
2017-02-02T12:22:31.888Z,1002.8
2017-02-02T12:23:42.134Z,1002.69
2017-02-02T12:24:51.608Z,1002.66
2017-02-02T12:26:02.511Z,1002.68
2017-02-02T12:27:13.180Z,1002.7
2017-02-02T12:28:23.841Z,1002.65
2017-02-02T12:29:34.517Z,1002.66
2017-02-02T12:30:43.603Z,1002.65
2017-02-02T12:31:53.769Z,1002.61
2017-02-02T12:33:04.419Z,1002.63
2017-02-02T12:34:13.496Z,1002.61
2017-02-02T12:35:23.358Z,1002.62
2017-02-02T12:36:33.622Z,1002.62
2017-02-02T12:37:44.042Z,1002.59
2017-02-02T12:38:54.687Z,1002.62
2017-02-02T12:40:04.571Z,1002.6
2017-02-02T12:41:14.830Z,1002.57
2017-02-02T12:42:25.472Z,1002.59
2017-02-02T12:43:36.254Z,1002.6
2017-02-02T12:44:46.114Z,1002.53
2017-02-02T12:45:56.387Z,1002.53
2017-02-02T12:47:06.645Z,1002.54
2017-02-02T12:48:16.951Z,1002.53
2017-02-02T12:49:27.589Z,1002.49
2017-02-02T12:50:38.250Z,1002.47
2017-02-02T12:51:48.513Z,1002.46
2017-02-02T12:52:59.171Z,1002.46
2017-02-02T12:54:08.663Z,1002.46
2017-02-02T12:55:18.497Z,1002.43
2017-02-02T12:56:28.756Z,1002.44
2017-02-02T12:57:39.028Z,1002.39
2017-02-02T12:58:49.296Z,1002.37
2017-02-02T12:59:59.547Z,1002.34
2017-02-02T13:01:09.969Z,1002.27
2017-02-02T13:02:20.616Z,1002.3
2017-02-02T13:03:31.271Z,1002.24
2017-02-02T13:04:41.546Z,1002.26
2017-02-02T13:05:51.814Z,1002.27
2017-02-02T13:07:02.043Z,1002.27
2017-02-02T13:08:11.909Z,1002.2
2017-02-02T13:09:22.565Z,1002.15
2017-02-02T13:10:32.440Z,1002.17
2017-02-02T13:11:42.750Z,1002.15
2017-02-02T13:12:52.926Z,1002.16
2017-02-02T13:14:03.605Z,1002.22
2017-02-02T13:15:13.856Z,1002.21
2017-02-02T13:16:24.500Z,1002.2
2017-02-02T13:17:34.401Z,1002.19
2017-02-02T13:18:44.930Z,1002.17
2017-02-02T13:19:54.819Z,1002.14
2017-02-02T13:21:04.713Z,1002.21
2017-02-02T13:22:14.597Z,1002.18
2017-02-02T13:23:24.476Z,1002.15
2017-02-02T13:24:35.470Z,1002.09
2017-02-02T13:25:45.739Z,1002.14
2017-02-02T13:26:55.992Z,1002.1
2017-02-02T13:28:06.297Z,1002.06
2017-02-02T13:29:16.570Z,1002.02
2017-02-02T13:30:27.473Z,1002.02
2017-02-02T13:31:38.131Z,1002.01
2017-02-02T13:32:48.424Z,1002.01
2017-02-02T13:33:59.134Z,1002.04
2017-02-02T13:35:09.775Z,1001.99
2017-02-02T13:36:19.405Z,1002.03
2017-02-02T13:37:29.694Z,1001.99
2017-02-02T13:38:39.981Z,1002.06
2017-02-02T13:39:50.631Z,1002.05
2017-02-02T13:41:01.300Z,1002.01
2017-02-02T13:42:11.954Z,1001.95
2017-02-02T13:43:22.605Z,1001.94
2017-02-02T13:44:32.470Z,1001.95
2017-02-02T13:45:43.132Z,1001.98
2017-02-02T13:46:53.793Z,1001.92
2017-02-02T13:48:04.765Z,1001.89
2017-02-02T13:49:15.032Z,1001.88
2017-02-02T13:50:25.315Z,1001.87
2017-02-02T13:51:35.198Z,1001.87
2017-02-02T13:52:45.882Z,1001.89
2017-02-02T13:53:56.831Z,1001.9
2017-02-02T13:55:07.491Z,1001.82
2017-02-02T13:56:17.763Z,1001.8
2017-02-02T13:57:28.029Z,1001.83
2017-02-02T13:58:38.747Z,1001.8
2017-02-02T13:59:49.746Z,1001.78
2017-02-02T14:00:59.627Z,1001.8
2017-02-02T14:02:09.890Z,1001.78
2017-02-02T14:03:20.194Z,1001.77
2017-02-02T14:04:30.475Z,1001.73
2017-02-02T14:05:41.248Z,1001.68
2017-02-02T14:06:51.141Z,1001.71
2017-02-02T14:08:01.406Z,1001.68
2017-02-02T14:09:11.689Z,1001.7
2017-02-02T14:10:22.342Z,1001.68
2017-02-02T14:11:33.150Z,1001.67
2017-02-02T14:12:43.407Z,1001.71
2017-02-02T14:13:53.724Z,1001.72